<?xml version="1.0" encoding="UTF-8" standalone="no" ?>
<gpx xmlns="http://www.topografix.com/GPX/1/1" xmlns:xsi="http://www.w3.org/2001/XMLSchema-instance" xsi:schemaLocation="http://www.topografix.com/GPX/1/1 http://www.topografix.com/GPX/1/1/gpx.xsd" version="1.1" creator="VisuGPX - https://www.visugpx.com">
  <metadata>
    <name>Pouilley-les-vignes 2022</name>
    <desc><![CDATA[Randonnée ASCEV du lundi après midi ]]></desc>
  </metadata>
  <trk>
    <name><![CDATA[Pouilley-les-vignes 2022]]></name>
    <trkseg>
      <trkpt lat="47.26102" lon="5.92821">
        <ele>235.618626</ele>
        <time>2022-02-04T13:35:35.985Z</time>
      </trkpt>
      <trkpt lat="47.261" lon="5.92834">
        <ele>235.618626</ele>
        <time>2022-02-04T13:35:45.757Z</time>
      </trkpt>
      <trkpt lat="47.26104" lon="5.92836">
        <ele>235.618626</ele>
        <time>2022-02-04T13:35:49.899Z</time>
      </trkpt>
      <trkpt lat="47.26097" lon="5.92886">
        <ele>235.618626</ele>
        <time>2022-02-04T13:36:28.526Z</time>
      </trkpt>
      <trkpt lat="47.26085" lon="5.92955">
        <ele>235.901495</ele>
        <time>2022-02-04T13:37:23.314Z</time>
      </trkpt>
      <trkpt lat="47.26082" lon="5.93068">
        <ele>239.2645</ele>
        <time>2022-02-04T13:38:51.879Z</time>
      </trkpt>
      <trkpt lat="47.26079" lon="5.93089">
        <ele>239.921618</ele>
        <time>2022-02-04T13:39:09.932Z</time>
      </trkpt>
      <trkpt lat="47.26078" lon="5.93095">
        <ele>240.090023</ele>
        <time>2022-02-04T13:39:14.024Z</time>
      </trkpt>
      <trkpt lat="47.26067" lon="5.93156">
        <ele>241.989424</ele>
        <time>2022-02-04T13:40:04.171Z</time>
      </trkpt>
      <trkpt lat="47.26058" lon="5.93213">
        <ele>243.734596</ele>
        <time>2022-02-04T13:40:48.856Z</time>
      </trkpt>
      <trkpt lat="47.26051" lon="5.93244">
        <ele>244.822319</ele>
        <time>2022-02-04T13:41:15.085Z</time>
      </trkpt>
      <trkpt lat="47.26048" lon="5.93253">
        <ele>245.167633</ele>
        <time>2022-02-04T13:41:22.437Z</time>
      </trkpt>
      <trkpt lat="47.26017" lon="5.93313">
        <ele>247.702541</ele>
        <time>2022-02-04T13:42:22.518Z</time>
      </trkpt>
      <trkpt lat="47.26017" lon="5.93313">
        <ele>247.705893</ele>
        <time>2022-02-04T13:42:22.690Z</time>
      </trkpt>
      <trkpt lat="47.26017" lon="5.93313">
        <ele>247.709246</ele>
        <time>2022-02-04T13:42:22.962Z</time>
      </trkpt>
      <trkpt lat="47.2603" lon="5.93323">
        <ele>248.409937</ele>
        <time>2022-02-04T13:42:40.413Z</time>
      </trkpt>
      <trkpt lat="47.26059" lon="5.93357">
        <ele>250.257928</ele>
        <time>2022-02-04T13:43:23.929Z</time>
      </trkpt>
      <trkpt lat="47.26091" lon="5.93406">
        <ele>252.534441</ele>
        <time>2022-02-04T13:44:16.755Z</time>
      </trkpt>
      <trkpt lat="47.261" lon="5.93426">
        <ele>253.512683</ele>
        <time>2022-02-04T13:44:36.323Z</time>
      </trkpt>
      <trkpt lat="47.26108" lon="5.93501">
        <ele>256.580503</ele>
        <time>2022-02-04T13:45:39.565Z</time>
      </trkpt>
      <trkpt lat="47.26117" lon="5.93567">
        <ele>259.2778</ele>
        <time>2022-02-04T13:46:35.351Z</time>
      </trkpt>
      <trkpt lat="47.26133" lon="5.93635">
        <ele>262.20421</ele>
        <time>2022-02-04T13:47:35.603Z</time>
      </trkpt>
      <trkpt lat="47.26156" lon="5.93715">
        <ele>264.127311</ele>
        <time>2022-02-04T13:48:45.397Z</time>
      </trkpt>
      <trkpt lat="47.26183" lon="5.93798">
        <ele>265.595846</ele>
        <time>2022-02-04T13:49:53.825Z</time>
      </trkpt>
      <trkpt lat="47.26208" lon="5.9384">
        <ele>266.485643</ele>
        <time>2022-02-04T13:50:33.836Z</time>
      </trkpt>
      <trkpt lat="47.26213" lon="5.93849">
        <ele>266.658603</ele>
        <time>2022-02-04T13:50:41.731Z</time>
      </trkpt>
      <trkpt lat="47.26214" lon="5.93852">
        <ele>266.718039</ele>
        <time>2022-02-04T13:50:44.550Z</time>
      </trkpt>
      <trkpt lat="47.26212" lon="5.93865">
        <ele>266.931836</ele>
        <time>2022-02-04T13:50:54.069Z</time>
      </trkpt>
      <trkpt lat="47.2621" lon="5.93877">
        <ele>267.132736</ele>
        <time>2022-02-04T13:51:02.677Z</time>
      </trkpt>
      <trkpt lat="47.26216" lon="5.93895">
        <ele>267.143372</ele>
        <time>2022-02-04T13:51:16.074Z</time>
      </trkpt>
      <trkpt lat="47.26246" lon="5.93947">
        <ele>265.750134</ele>
        <time>2022-02-04T13:52:04.788Z</time>
      </trkpt>
      <trkpt lat="47.26267" lon="5.94004">
        <ele>264.414761</ele>
        <time>2022-02-04T13:52:52.462Z</time>
      </trkpt>
      <trkpt lat="47.26286" lon="5.94039">
        <ele>263.522889</ele>
        <time>2022-02-04T13:53:24.499Z</time>
      </trkpt>
      <trkpt lat="47.26304" lon="5.94085">
        <ele>262.413665</ele>
        <time>2022-02-04T13:54:04.634Z</time>
      </trkpt>
      <trkpt lat="47.26349" lon="5.94232">
        <ele>258.958895</ele>
        <time>2022-02-04T13:56:02.551Z</time>
      </trkpt>
      <trkpt lat="47.26376" lon="5.94302">
        <ele>257.184341</ele>
        <time>2022-02-04T13:57:01.221Z</time>
      </trkpt>
      <trkpt lat="47.26395" lon="5.94334">
        <ele>256.262288</ele>
        <time>2022-02-04T13:57:31.220Z</time>
      </trkpt>
      <trkpt lat="47.26474" lon="5.94403">
        <ele>256.776858</ele>
        <time>2022-02-04T13:59:04.437Z</time>
      </trkpt>
      <trkpt lat="47.26484" lon="5.94423">
        <ele>256.903174</ele>
        <time>2022-02-04T13:59:23.440Z</time>
      </trkpt>
      <trkpt lat="47.26519" lon="5.94547">
        <ele>257.978159</ele>
        <time>2022-02-04T14:01:01.257Z</time>
      </trkpt>
      <trkpt lat="47.2652" lon="5.94552">
        <ele>258.11096</ele>
        <time>2022-02-04T14:01:06.020Z</time>
      </trkpt>
      <trkpt lat="47.26517" lon="5.94565">
        <ele>258.399589</ele>
        <time>2022-02-04T14:01:16.430Z</time>
      </trkpt>
      <trkpt lat="47.26529" lon="5.94586">
        <ele>259.018093</ele>
        <time>2022-02-04T14:01:35.842Z</time>
      </trkpt>
      <trkpt lat="47.2653" lon="5.94604">
        <ele>259.430444</ele>
        <time>2022-02-04T14:01:50.846Z</time>
      </trkpt>
      <trkpt lat="47.26542" lon="5.94739">
        <ele>262.480811</ele>
        <time>2022-02-04T14:03:34.050Z</time>
      </trkpt>
      <trkpt lat="47.26542" lon="5.94792">
        <ele>263.718062</ele>
        <time>2022-02-04T14:04:14.590Z</time>
      </trkpt>
      <trkpt lat="47.26533" lon="5.94816">
        <ele>264.486719</ele>
        <time>2022-02-04T14:04:36.081Z</time>
      </trkpt>
      <trkpt lat="47.26454" lon="5.94961">
        <ele>269.672861</ele>
        <time>2022-02-04T14:06:58.085Z</time>
      </trkpt>
      <trkpt lat="47.26446" lon="5.94994">
        <ele>270.629636</ele>
        <time>2022-02-04T14:07:25.665Z</time>
      </trkpt>
      <trkpt lat="47.26447" lon="5.95042">
        <ele>272.936955</ele>
        <time>2022-02-04T14:08:05.469Z</time>
      </trkpt>
      <trkpt lat="47.26454" lon="5.95082">
        <ele>274.98039</ele>
        <time>2022-02-04T14:08:39.579Z</time>
      </trkpt>
      <trkpt lat="47.26505" lon="5.95198">
        <ele>281.858697</ele>
        <time>2022-02-04T14:10:38.560Z</time>
      </trkpt>
      <trkpt lat="47.26521" lon="5.95244">
        <ele>284.504903</ele>
        <time>2022-02-04T14:11:23.987Z</time>
      </trkpt>
      <trkpt lat="47.26548" lon="5.9539">
        <ele>293.316108</ele>
        <time>2022-02-04T14:13:36.526Z</time>
      </trkpt>
      <trkpt lat="47.26656" lon="5.95761">
        <ele>316.71477</ele>
        <time>2022-02-04T14:19:29.711Z</time>
      </trkpt>
      <trkpt lat="47.26663" lon="5.95788">
        <ele>318.331726</ele>
        <time>2022-02-04T14:19:55.090Z</time>
      </trkpt>
      <trkpt lat="47.26672" lon="5.95815">
        <ele>320.017446</ele>
        <time>2022-02-04T14:20:21.933Z</time>
      </trkpt>
      <trkpt lat="47.26671" lon="5.95863">
        <ele>322.764668</ele>
        <time>2022-02-04T14:21:04.975Z</time>
      </trkpt>
      <trkpt lat="47.2665" lon="5.95968">
        <ele>328.909829</ele>
        <time>2022-02-04T14:22:40.795Z</time>
      </trkpt>
      <trkpt lat="47.26611" lon="5.96107">
        <ele>332.232573</ele>
        <time>2022-02-04T14:24:43.164Z</time>
      </trkpt>
      <trkpt lat="47.26605" lon="5.96153">
        <ele>333.093663</ele>
        <time>2022-02-04T14:25:16.710Z</time>
      </trkpt>
      <trkpt lat="47.26598" lon="5.96211">
        <ele>334.158777</ele>
        <time>2022-02-04T14:25:56.648Z</time>
      </trkpt>
      <trkpt lat="47.26611" lon="5.96281">
        <ele>332.558724</ele>
        <time>2022-02-04T14:26:49.479Z</time>
      </trkpt>
      <trkpt lat="47.26619" lon="5.96324">
        <ele>330.743951</ele>
        <time>2022-02-04T14:27:22.527Z</time>
      </trkpt>
      <trkpt lat="47.26619" lon="5.96324">
        <ele>330.743951</ele>
        <time>2022-02-04T14:27:23.065Z</time>
      </trkpt>
      <trkpt lat="47.26621" lon="5.96327">
        <ele>330.557394</ele>
        <time>2022-02-04T14:27:26.655Z</time>
      </trkpt>
      <trkpt lat="47.26626" lon="5.96357">
        <ele>329.303533</ele>
        <time>2022-02-04T14:27:48.846Z</time>
      </trkpt>
      <trkpt lat="47.26608" lon="5.96397">
        <ele>327.323601</ele>
        <time>2022-02-04T14:28:26.540Z</time>
      </trkpt>
      <trkpt lat="47.26586" lon="5.96424">
        <ele>325.585799</ele>
        <time>2022-02-04T14:29:00.245Z</time>
      </trkpt>
      <trkpt lat="47.26541" lon="5.96451">
        <ele>322.399529</ele>
        <time>2022-02-04T14:29:56.689Z</time>
      </trkpt>
      <trkpt lat="47.26537" lon="5.96453">
        <ele>322.042202</ele>
        <time>2022-02-04T14:30:02.580Z</time>
      </trkpt>
      <trkpt lat="47.26537" lon="5.96453">
        <ele>322.042202</ele>
        <time>2022-02-04T14:30:03.854Z</time>
      </trkpt>
      <trkpt lat="47.26473" lon="5.96468">
        <ele>317.233635</ele>
        <time>2022-02-04T14:31:18.102Z</time>
      </trkpt>
      <trkpt lat="47.26434" lon="5.9645">
        <ele>314.157332</ele>
        <time>2022-02-04T14:32:05.659Z</time>
      </trkpt>
      <trkpt lat="47.26352" lon="5.96394">
        <ele>309.542003</ele>
        <time>2022-02-04T14:33:47.220Z</time>
      </trkpt>
      <trkpt lat="47.26311" lon="5.96388">
        <ele>308.819533</ele>
        <time>2022-02-04T14:34:31.048Z</time>
      </trkpt>
      <trkpt lat="47.26305" lon="5.96386">
        <ele>308.718172</ele>
        <time>2022-02-04T14:34:37.138Z</time>
      </trkpt>
      <trkpt lat="47.2628" lon="5.96379">
        <ele>308.261624</ele>
        <time>2022-02-04T14:35:04.153Z</time>
      </trkpt>
      <trkpt lat="47.26247" lon="5.96337">
        <ele>307.509638</ele>
        <time>2022-02-04T14:35:47.307Z</time>
      </trkpt>
      <trkpt lat="47.26229" lon="5.96319">
        <ele>307.113931</ele>
        <time>2022-02-04T14:36:11.070Z</time>
      </trkpt>
      <trkpt lat="47.26215" lon="5.96338">
        <ele>307.740498</ele>
        <time>2022-02-04T14:36:32.886Z</time>
      </trkpt>
      <trkpt lat="47.26207" lon="5.96329">
        <ele>308.191277</ele>
        <time>2022-02-04T14:36:43.900Z</time>
      </trkpt>
      <trkpt lat="47.26204" lon="5.96322">
        <ele>308.422454</ele>
        <time>2022-02-04T14:36:49.616Z</time>
      </trkpt>
      <trkpt lat="47.262" lon="5.96311">
        <ele>308.818989</ele>
        <time>2022-02-04T14:37:00.457Z</time>
      </trkpt>
      <trkpt lat="47.26201" lon="5.96216">
        <ele>311.697527</ele>
        <time>2022-02-04T14:38:15.885Z</time>
      </trkpt>
      <trkpt lat="47.26214" lon="5.96194">
        <ele>312.575636</ele>
        <time>2022-02-04T14:38:39.896Z</time>
      </trkpt>
      <trkpt lat="47.26258" lon="5.96119">
        <ele>315.48498</ele>
        <time>2022-02-04T14:39:58.920Z</time>
      </trkpt>
      <trkpt lat="47.26258" lon="5.96119">
        <ele>315.48498</ele>
        <time>2022-02-04T14:39:59.446Z</time>
      </trkpt>
      <trkpt lat="47.26258" lon="5.96119">
        <ele>315.48498</ele>
        <time>2022-02-04T14:39:59.804Z</time>
      </trkpt>
      <trkpt lat="47.26233" lon="5.96078">
        <ele>316.86931</ele>
        <time>2022-02-04T14:40:43.679Z</time>
      </trkpt>
      <trkpt lat="47.26231" lon="5.96074">
        <ele>317.001273</ele>
        <time>2022-02-04T14:40:47.805Z</time>
      </trkpt>
      <trkpt lat="47.26203" lon="5.96032">
        <ele>318.437958</ele>
        <time>2022-02-04T14:41:32.779Z</time>
      </trkpt>
      <trkpt lat="47.26197" lon="5.96021">
        <ele>318.796682</ele>
        <time>2022-02-04T14:41:43.605Z</time>
      </trkpt>
      <trkpt lat="47.26187" lon="5.96004">
        <ele>319.338301</ele>
        <time>2022-02-04T14:41:59.726Z</time>
      </trkpt>
      <trkpt lat="47.26177" lon="5.95985">
        <ele>319.950048</ele>
        <time>2022-02-04T14:42:17.455Z</time>
      </trkpt>
      <trkpt lat="47.26136" lon="5.95885">
        <ele>323.683583</ele>
        <time>2022-02-04T14:43:44.000Z</time>
      </trkpt>
      <trkpt lat="47.26107" lon="5.95843">
        <ele>326.258598</ele>
        <time>2022-02-04T14:44:32.351Z</time>
      </trkpt>
      <trkpt lat="47.26075" lon="5.9579">
        <ele>329.289189</ele>
        <time>2022-02-04T14:45:32.281Z</time>
      </trkpt>
      <trkpt lat="47.26076" lon="5.95786">
        <ele>329.463299</ele>
        <time>2022-02-04T14:45:38.671Z</time>
      </trkpt>
      <trkpt lat="47.26112" lon="5.95726">
        <ele>332.857683</ele>
        <time>2022-02-04T14:46:47.281Z</time>
      </trkpt>
      <trkpt lat="47.26145" lon="5.95664">
        <ele>336.027159</ele>
        <time>2022-02-04T14:47:57.052Z</time>
      </trkpt>
      <trkpt lat="47.26164" lon="5.95635">
        <ele>337.646139</ele>
        <time>2022-02-04T14:48:30.873Z</time>
      </trkpt>
      <trkpt lat="47.26172" lon="5.95593">
        <ele>339.359672</ele>
        <time>2022-02-04T14:49:08.204Z</time>
      </trkpt>
      <trkpt lat="47.26172" lon="5.95593">
        <ele>339.359672</ele>
        <time>2022-02-04T14:49:08.354Z</time>
      </trkpt>
      <trkpt lat="47.2616" lon="5.95573">
        <ele>340.455155</ele>
        <time>2022-02-04T14:49:30.763Z</time>
      </trkpt>
      <trkpt lat="47.2615" lon="5.9556">
        <ele>341.227883</ele>
        <time>2022-02-04T14:49:46.305Z</time>
      </trkpt>
      <trkpt lat="47.26014" lon="5.95368">
        <ele>344.044126</ele>
        <time>2022-02-04T14:53:01.191Z</time>
      </trkpt>
      <trkpt lat="47.25985" lon="5.95337">
        <ele>343.932024</ele>
        <time>2022-02-04T14:53:38.516Z</time>
      </trkpt>
      <trkpt lat="47.25936" lon="5.95301">
        <ele>341.619123</ele>
        <time>2022-02-04T14:54:36.681Z</time>
      </trkpt>
      <trkpt lat="47.2589" lon="5.9524">
        <ele>338.995366</ele>
        <time>2022-02-04T14:55:43.341Z</time>
      </trkpt>
      <trkpt lat="47.25881" lon="5.95232">
        <ele>338.555017</ele>
        <time>2022-02-04T14:55:55.648Z</time>
      </trkpt>
      <trkpt lat="47.25878" lon="5.9523">
        <ele>338.41332</ele>
        <time>2022-02-04T14:55:59.446Z</time>
      </trkpt>
      <trkpt lat="47.25858" lon="5.95202">
        <ele>337.267957</ele>
        <time>2022-02-04T14:56:29.920Z</time>
      </trkpt>
      <trkpt lat="47.25769" lon="5.95115">
        <ele>329.35322</ele>
        <time>2022-02-04T14:58:32.456Z</time>
      </trkpt>
      <trkpt lat="47.25769" lon="5.95115">
        <ele>329.35322</ele>
        <time>2022-02-04T14:58:32.843Z</time>
      </trkpt>
      <trkpt lat="47.25769" lon="5.95115">
        <ele>329.35322</ele>
        <time>2022-02-04T14:58:32.843Z</time>
      </trkpt>
      <trkpt lat="47.25698" lon="5.95181">
        <ele>322.660152</ele>
        <time>2022-02-04T14:59:57.197Z</time>
      </trkpt>
      <trkpt lat="47.25627" lon="5.95247">
        <ele>317.413126</ele>
        <time>2022-02-04T15:01:21.498Z</time>
      </trkpt>
      <trkpt lat="47.25617" lon="5.95238">
        <ele>316.676993</ele>
        <time>2022-02-04T15:01:34.745Z</time>
      </trkpt>
      <trkpt lat="47.25581" lon="5.95211">
        <ele>314.204264</ele>
        <time>2022-02-04T15:02:19.554Z</time>
      </trkpt>
      <trkpt lat="47.25574" lon="5.95205">
        <ele>313.744461</ele>
        <time>2022-02-04T15:02:27.731Z</time>
      </trkpt>
      <trkpt lat="47.25555" lon="5.95177">
        <ele>312.091534</ele>
        <time>2022-02-04T15:02:57.373Z</time>
      </trkpt>
      <trkpt lat="47.25543" lon="5.95158">
        <ele>311.100473</ele>
        <time>2022-02-04T15:03:16.542Z</time>
      </trkpt>
      <trkpt lat="47.25536" lon="5.95148">
        <ele>310.759483</ele>
        <time>2022-02-04T15:03:27.307Z</time>
      </trkpt>
      <trkpt lat="47.25516" lon="5.95116">
        <ele>309.771398</ele>
        <time>2022-02-04T15:03:58.745Z</time>
      </trkpt>
      <trkpt lat="47.25508" lon="5.95093">
        <ele>309.182691</ele>
        <time>2022-02-04T15:04:17.478Z</time>
      </trkpt>
      <trkpt lat="47.25501" lon="5.95064">
        <ele>308.490681</ele>
        <time>2022-02-04T15:04:38.759Z</time>
      </trkpt>
      <trkpt lat="47.25493" lon="5.95047">
        <ele>307.998037</ele>
        <time>2022-02-04T15:04:54.630Z</time>
      </trkpt>
      <trkpt lat="47.2547" lon="5.95015">
        <ele>306.946232</ele>
        <time>2022-02-04T15:05:27.434Z</time>
      </trkpt>
      <trkpt lat="47.25428" lon="5.94981">
        <ele>305.332871</ele>
        <time>2022-02-04T15:06:18.399Z</time>
      </trkpt>
      <trkpt lat="47.2542" lon="5.94981">
        <ele>305.040551</ele>
        <time>2022-02-04T15:06:27.455Z</time>
      </trkpt>
      <trkpt lat="47.25377" lon="5.95198">
        <ele>299.572305</ele>
        <time>2022-02-04T15:09:14.243Z</time>
      </trkpt>
      <trkpt lat="47.25373" lon="5.95208">
        <ele>299.293778</ele>
        <time>2022-02-04T15:09:22.788Z</time>
      </trkpt>
      <trkpt lat="47.25369" lon="5.95214">
        <ele>299.106355</ele>
        <time>2022-02-04T15:09:28.203Z</time>
      </trkpt>
      <trkpt lat="47.25366" lon="5.95218">
        <ele>298.955467</ele>
        <time>2022-02-04T15:09:32.601Z</time>
      </trkpt>
      <trkpt lat="47.25352" lon="5.95222">
        <ele>298.719281</ele>
        <time>2022-02-04T15:09:46.739Z</time>
      </trkpt>
      <trkpt lat="47.2535" lon="5.95223">
        <ele>298.710389</ele>
        <time>2022-02-04T15:09:49.441Z</time>
      </trkpt>
      <trkpt lat="47.2535" lon="5.95223">
        <ele>298.710389</ele>
        <time>2022-02-04T15:09:49.603Z</time>
      </trkpt>
      <trkpt lat="47.25347" lon="5.952">
        <ele>298.654722</ele>
        <time>2022-02-04T15:10:06.176Z</time>
      </trkpt>
      <trkpt lat="47.25343" lon="5.95166">
        <ele>298.573025</ele>
        <time>2022-02-04T15:10:30.037Z</time>
      </trkpt>
      <trkpt lat="47.25337" lon="5.9511">
        <ele>298.436018</ele>
        <time>2022-02-04T15:11:09.333Z</time>
      </trkpt>
      <trkpt lat="47.25335" lon="5.95087">
        <ele>298.380441</ele>
        <time>2022-02-04T15:11:25.368Z</time>
      </trkpt>
      <trkpt lat="47.25339" lon="5.95032">
        <ele>298.247446</ele>
        <time>2022-02-04T15:12:03.365Z</time>
      </trkpt>
      <trkpt lat="47.25342" lon="5.95019">
        <ele>298.21515</ele>
        <time>2022-02-04T15:12:12.953Z</time>
      </trkpt>
      <trkpt lat="47.25348" lon="5.95">
        <ele>298.165876</ele>
        <time>2022-02-04T15:12:27.825Z</time>
      </trkpt>
      <trkpt lat="47.25355" lon="5.94981">
        <ele>298.114278</ele>
        <time>2022-02-04T15:12:43.366Z</time>
      </trkpt>
      <trkpt lat="47.25352" lon="5.94978">
        <ele>298.119563</ele>
        <time>2022-02-04T15:12:47.565Z</time>
      </trkpt>
      <trkpt lat="47.25348" lon="5.94973">
        <ele>298.129338</ele>
        <time>2022-02-04T15:12:52.084Z</time>
      </trkpt>
      <trkpt lat="47.25345" lon="5.94964">
        <ele>298.146175</ele>
        <time>2022-02-04T15:12:59.470Z</time>
      </trkpt>
      <trkpt lat="47.25349" lon="5.94961">
        <ele>298.155525</ele>
        <time>2022-02-04T15:13:04.528Z</time>
      </trkpt>
      <trkpt lat="47.25359" lon="5.94965">
        <ele>298.179524</ele>
        <time>2022-02-04T15:13:15.645Z</time>
      </trkpt>
      <trkpt lat="47.25378" lon="5.9493">
        <ele>298.248242</ele>
        <time>2022-02-04T15:13:47.420Z</time>
      </trkpt>
      <trkpt lat="47.25395" lon="5.94913">
        <ele>298.295779</ele>
        <time>2022-02-04T15:14:08.812Z</time>
      </trkpt>
      <trkpt lat="47.25485" lon="5.94825">
        <ele>298.23214</ele>
        <time>2022-02-04T15:15:57.265Z</time>
      </trkpt>
      <trkpt lat="47.25501" lon="5.94797">
        <ele>297.393235</ele>
        <time>2022-02-04T15:16:23.166Z</time>
      </trkpt>
      <trkpt lat="47.25521" lon="5.94622">
        <ele>293.365343</ele>
        <time>2022-02-04T15:18:32.959Z</time>
      </trkpt>
      <trkpt lat="47.25531" lon="5.94577">
        <ele>292.143565</ele>
        <time>2022-02-04T15:19:08.090Z</time>
      </trkpt>
      <trkpt lat="47.25541" lon="5.94543">
        <ele>290.651509</ele>
        <time>2022-02-04T15:19:36.472Z</time>
      </trkpt>
      <trkpt lat="47.25542" lon="5.94547">
        <ele>290.470994</ele>
        <time>2022-02-04T15:19:39.789Z</time>
      </trkpt>
      <trkpt lat="47.25541" lon="5.94543">
        <ele>290.290479</ele>
        <time>2022-02-04T15:19:43.037Z</time>
      </trkpt>
      <trkpt lat="47.25543" lon="5.94532">
        <ele>289.830492</ele>
        <time>2022-02-04T15:19:51.737Z</time>
      </trkpt>
      <trkpt lat="47.25566" lon="5.94454">
        <ele>286.491597</ele>
        <time>2022-02-04T15:20:55.076Z</time>
      </trkpt>
      <trkpt lat="47.25568" lon="5.9442">
        <ele>285.13713</ele>
        <time>2022-02-04T15:21:21.650Z</time>
      </trkpt>
      <trkpt lat="47.25564" lon="5.9436">
        <ele>282.755516</ele>
        <time>2022-02-04T15:22:07.715Z</time>
      </trkpt>
      <trkpt lat="47.25538" lon="5.9426">
        <ele>277.570716</ele>
        <time>2022-02-04T15:23:30.715Z</time>
      </trkpt>
      <trkpt lat="47.2554" lon="5.94251">
        <ele>277.076994</ele>
        <time>2022-02-04T15:23:37.844Z</time>
      </trkpt>
      <trkpt lat="47.25542" lon="5.94247">
        <ele>276.850885</ele>
        <time>2022-02-04T15:23:42.072Z</time>
      </trkpt>
      <trkpt lat="47.25543" lon="5.94243">
        <ele>276.637211</ele>
        <time>2022-02-04T15:23:47.081Z</time>
      </trkpt>
      <trkpt lat="47.25541" lon="5.94239">
        <ele>276.399156</ele>
        <time>2022-02-04T15:23:50.983Z</time>
      </trkpt>
      <trkpt lat="47.25525" lon="5.942">
        <ele>274.038948</ele>
        <time>2022-02-04T15:24:26.717Z</time>
      </trkpt>
      <trkpt lat="47.25513" lon="5.94153">
        <ele>271.547316</ele>
        <time>2022-02-04T15:25:04.307Z</time>
      </trkpt>
      <trkpt lat="47.25514" lon="5.94149">
        <ele>271.35702</ele>
        <time>2022-02-04T15:25:08.764Z</time>
      </trkpt>
      <trkpt lat="47.25511" lon="5.94149">
        <ele>271.190746</ele>
        <time>2022-02-04T15:25:12.259Z</time>
      </trkpt>
      <trkpt lat="47.255" lon="5.94083">
        <ele>267.903735</ele>
        <time>2022-02-04T15:26:04.587Z</time>
      </trkpt>
      <trkpt lat="47.25495" lon="5.94028">
        <ele>265.52307</ele>
        <time>2022-02-04T15:26:48.208Z</time>
      </trkpt>
      <trkpt lat="47.25499" lon="5.9389">
        <ele>259.595165</ele>
        <time>2022-02-04T15:28:33.794Z</time>
      </trkpt>
      <trkpt lat="47.25504" lon="5.93751">
        <ele>254.689819</ele>
        <time>2022-02-04T15:30:17.635Z</time>
      </trkpt>
      <trkpt lat="47.25505" lon="5.93726">
        <ele>253.897722</ele>
        <time>2022-02-04T15:30:36.811Z</time>
      </trkpt>
      <trkpt lat="47.2551" lon="5.9367">
        <ele>252.179848</ele>
        <time>2022-02-04T15:31:18.247Z</time>
      </trkpt>
      <trkpt lat="47.25512" lon="5.93651">
        <ele>251.602982</ele>
        <time>2022-02-04T15:31:32.352Z</time>
      </trkpt>
      <trkpt lat="47.25552" lon="5.93678">
        <ele>249.623331</ele>
        <time>2022-02-04T15:32:20.195Z</time>
      </trkpt>
      <trkpt lat="47.25578" lon="5.93682">
        <ele>248.531301</ele>
        <time>2022-02-04T15:32:49.034Z</time>
      </trkpt>
      <trkpt lat="47.25591" lon="5.93697">
        <ele>247.896789</ele>
        <time>2022-02-04T15:33:06.385Z</time>
      </trkpt>
      <trkpt lat="47.25641" lon="5.93714">
        <ele>245.930001</ele>
        <time>2022-02-04T15:34:01.359Z</time>
      </trkpt>
      <trkpt lat="47.25644" lon="5.93715">
        <ele>245.797157</ele>
        <time>2022-02-04T15:34:05.148Z</time>
      </trkpt>
      <trkpt lat="47.25663" lon="5.93704">
        <ele>245.000006</ele>
        <time>2022-02-04T15:34:26.651Z</time>
      </trkpt>
      <trkpt lat="47.25669" lon="5.9369">
        <ele>244.564131</ele>
        <time>2022-02-04T15:34:39.608Z</time>
      </trkpt>
      <trkpt lat="47.25698" lon="5.93603">
        <ele>242.082749</ele>
        <time>2022-02-04T15:35:50.289Z</time>
      </trkpt>
      <trkpt lat="47.25707" lon="5.93595">
        <ele>241.805797</ele>
        <time>2022-02-04T15:36:01.995Z</time>
      </trkpt>
      <trkpt lat="47.25715" lon="5.93588">
        <ele>241.561284</ele>
        <time>2022-02-04T15:36:11.449Z</time>
      </trkpt>
      <trkpt lat="47.25729" lon="5.93585">
        <ele>241.175479</ele>
        <time>2022-02-04T15:36:26.411Z</time>
      </trkpt>
      <trkpt lat="47.25732" lon="5.93585">
        <ele>241.08677</ele>
        <time>2022-02-04T15:36:30.319Z</time>
      </trkpt>
      <trkpt lat="47.25733" lon="5.93581">
        <ele>241.00633</ele>
        <time>2022-02-04T15:36:33.789Z</time>
      </trkpt>
      <trkpt lat="47.25752" lon="5.93535">
        <ele>240.025029</ele>
        <time>2022-02-04T15:37:13.096Z</time>
      </trkpt>
      <trkpt lat="47.25752" lon="5.93531">
        <ele>239.944724</ele>
        <time>2022-02-04T15:37:16.480Z</time>
      </trkpt>
      <trkpt lat="47.25757" lon="5.9353">
        <ele>239.809555</ele>
        <time>2022-02-04T15:37:21.727Z</time>
      </trkpt>
      <trkpt lat="47.25762" lon="5.93527">
        <ele>239.672839</ele>
        <time>2022-02-04T15:37:26.922Z</time>
      </trkpt>
      <trkpt lat="47.25774" lon="5.93506">
        <ele>239.161318</ele>
        <time>2022-02-04T15:37:46.639Z</time>
      </trkpt>
      <trkpt lat="47.25777" lon="5.93501">
        <ele>239.059767</ele>
        <time>2022-02-04T15:37:50.820Z</time>
      </trkpt>
      <trkpt lat="47.25797" lon="5.93468">
        <ele>238.231131</ele>
        <time>2022-02-04T15:38:22.363Z</time>
      </trkpt>
      <trkpt lat="47.25801" lon="5.93468">
        <ele>238.136906</ele>
        <time>2022-02-04T15:38:26.326Z</time>
      </trkpt>
      <trkpt lat="47.25808" lon="5.93458">
        <ele>237.86427</ele>
        <time>2022-02-04T15:38:37.050Z</time>
      </trkpt>
      <trkpt lat="47.25809" lon="5.93452">
        <ele>237.761558</ele>
        <time>2022-02-04T15:38:40.921Z</time>
      </trkpt>
      <trkpt lat="47.25823" lon="5.93438">
        <ele>237.377598</ele>
        <time>2022-02-04T15:38:58.412Z</time>
      </trkpt>
      <trkpt lat="47.25859" lon="5.93405">
        <ele>237.229441</ele>
        <time>2022-02-04T15:39:41.619Z</time>
      </trkpt>
      <trkpt lat="47.2587" lon="5.9339">
        <ele>237.175692</ele>
        <time>2022-02-04T15:39:57.275Z</time>
      </trkpt>
      <trkpt lat="47.25877" lon="5.9338">
        <ele>237.140079</ele>
        <time>2022-02-04T15:40:07.439Z</time>
      </trkpt>
      <trkpt lat="47.25889" lon="5.93362">
        <ele>237.080254</ele>
        <time>2022-02-04T15:40:24.636Z</time>
      </trkpt>
      <trkpt lat="47.25902" lon="5.93348">
        <ele>237.025221</ele>
        <time>2022-02-04T15:40:40.295Z</time>
      </trkpt>
      <trkpt lat="47.25909" lon="5.9334">
        <ele>236.993987</ele>
        <time>2022-02-04T15:40:49.482Z</time>
      </trkpt>
      <trkpt lat="47.25909" lon="5.9334">
        <ele>236.993987</ele>
        <time>2022-02-04T15:40:49.557Z</time>
      </trkpt>
      <trkpt lat="47.25906" lon="5.93334">
        <ele>236.977257</ele>
        <time>2022-02-04T15:40:54.328Z</time>
      </trkpt>
      <trkpt lat="47.25884" lon="5.93287">
        <ele>236.84132</ele>
        <time>2022-02-04T15:41:33.349Z</time>
      </trkpt>
      <trkpt lat="47.25884" lon="5.93266">
        <ele>236.791502</ele>
        <time>2022-02-04T15:41:47.597Z</time>
      </trkpt>
      <trkpt lat="47.25886" lon="5.93251">
        <ele>236.750289</ele>
        <time>2022-02-04T15:41:58.196Z</time>
      </trkpt>
      <trkpt lat="47.25894" lon="5.93224">
        <ele>236.56066</ele>
        <time>2022-02-04T15:42:18.302Z</time>
      </trkpt>
      <trkpt lat="47.25898" lon="5.93215">
        <ele>236.487218</ele>
        <time>2022-02-04T15:42:25.995Z</time>
      </trkpt>
      <trkpt lat="47.25919" lon="5.93162">
        <ele>236.091017</ele>
        <time>2022-02-04T15:43:08.034Z</time>
      </trkpt>
      <trkpt lat="47.25929" lon="5.93107">
        <ele>235.71956</ele>
        <time>2022-02-04T15:43:48.126Z</time>
      </trkpt>
      <trkpt lat="47.25941" lon="5.93037">
        <ele>235.255688</ele>
        <time>2022-02-04T15:44:38.347Z</time>
      </trkpt>
      <trkpt lat="47.25945" lon="5.93031">
        <ele>235.202586</ele>
        <time>2022-02-04T15:44:44.114Z</time>
      </trkpt>
      <trkpt lat="47.25973" lon="5.93022">
        <ele>235.041848</ele>
        <time>2022-02-04T15:45:13.282Z</time>
      </trkpt>
      <trkpt lat="47.25973" lon="5.93022">
        <ele>235.041848</ele>
        <time>2022-02-04T15:45:13.404Z</time>
      </trkpt>
      <trkpt lat="47.25973" lon="5.92995">
        <ele>235.041848</ele>
        <time>2022-02-04T15:45:32.513Z</time>
      </trkpt>
      <trkpt lat="47.25975" lon="5.92928">
        <ele>235.041848</ele>
        <time>2022-02-04T15:46:19.544Z</time>
      </trkpt>
      <trkpt lat="47.25981" lon="5.9292">
        <ele>235.041848</ele>
        <time>2022-02-04T15:46:28.161Z</time>
      </trkpt>
      <trkpt lat="47.2603" lon="5.92892">
        <ele>235.041848</ele>
        <time>2022-02-04T15:47:22.635Z</time>
      </trkpt>
      <trkpt lat="47.26086" lon="5.92883">
        <ele>235.041848</ele>
        <time>2022-02-04T15:48:20.686Z</time>
      </trkpt>
      <trkpt lat="47.26097" lon="5.92886">
        <ele>235.041848</ele>
        <time>2022-02-04T15:48:32.324Z</time>
      </trkpt>
      <trkpt lat="47.26104" lon="5.92836">
        <ele>235.041848</ele>
        <time>2022-02-04T15:49:07.725Z</time>
      </trkpt>
      <trkpt lat="47.261" lon="5.92834">
        <ele>235.041848</ele>
        <time>2022-02-04T15:49:11.674Z</time>
      </trkpt>
      <trkpt lat="47.26102" lon="5.92821">
        <ele>235.041848</ele>
        <time>2022-02-04T15:49:20.982Z</time>
      </trkpt>
      <trkpt lat="47.26102" lon="5.92817">
        <ele>235.041848</ele>
        <time>2022-02-04T15:49:23.485Z</time>
      </trkpt>
      <trkpt lat="47.26102" lon="5.92821">
        <ele>235.041848</ele>
        <time>2022-02-04T15:49:25.987Z</time>
      </trkpt>
    </trkseg>
  </trk>
</gpx>